Time;durP1;ratioP1;P1;durP2;ratioP2;P2;SDS_P1;SDS_P2;PMS_P1;PMS_P2;Temp;Humidity;BMP_temperature;BMP_pressure;BME280_temperature;BME280_humidity;BME280_pressure;Samples;Min_cycle;Max_cycle;Signal;HPM_P1;HPM_P2
2021/10/25 00:01:29;;;;;;;22.33;14.10;;;11.30;99.40;;;;;;5087958;28;20474;-71
2021/10/25 00:03:55;;;;;;;20.58;14.52;;;11.30;99.50;;;;;;5102818;28;20463;-70
2021/10/25 00:06:21;;;;;;;20.05;14.40;;;11.30;99.60;;;;;;5069931;28;20421;-70
2021/10/25 00:08:47;;;;;;;20.38;14.70;;;11.30;99.60;;;;;;5088569;28;20402;-71
2021/10/25 00:11:13;;;;;;;21.03;14.77;;;11.30;99.80;;;;;;5086661;28;20502;-69
2021/10/25 00:13:40;;;;;;;20.90;14.93;;;11.30;99.80;;;;;;5088468;28;20434;-70
2021/10/25 00:16:06;;;;;;;21.58;14.18;;;11.30;99.80;;;;;;5069882;28;20425;-70
2021/10/25 00:18:33;;;;;;;22.70;14.93;;;11.30;99.90;;;;;;5087569;28;20507;-70
2021/10/25 00:20:59;;;;;;;21.48;15.10;;;11.30;99.90;;;;;;5089987;28;20430;-71
2021/10/25 00:23:25;;;;;;;22.08;14.63;;;11.30;99.90;;;;;;5088323;28;20402;-70
2021/10/25 00:25:52;;;;;;;20.02;14.80;;;11.30;99.90;;;;;;5088309;28;20835;-71
2021/10/25 00:28:17;;;;;;;21.33;14.80;;;11.40;99.90;;;;;;5093938;28;20403;-72
2021/10/25 00:30:43;;;;;;;21.95;14.88;;;11.40;99.90;;;;;;5087923;28;20390;-71
2021/10/25 00:33:09;;;;;;;22.00;14.47;;;11.40;99.90;;;;;;5070281;28;20443;-71
2021/10/25 00:35:34;;;;;;;21.05;14.30;;;11.50;99.90;;;;;;5055045;28;20940;-70
2021/10/25 00:38:00;;;;;;;19.07;14.07;;;11.60;99.90;;;;;;5088112;28;20414;-70
2021/10/25 00:40:26;;;;;;;19.67;14.27;;;11.60;99.90;;;;;;5068899;28;20401;-70
2021/10/25 00:42:52;;;;;;;20.97;14.70;;;11.60;99.80;;;;;;5071128;28;20410;-70
2021/10/25 00:45:17;;;;;;;19.75;14.80;;;11.70;99.80;;;;;;5068487;28;20411;-70
2021/10/25 00:47:43;;;;;;;22.03;14.33;;;11.70;99.70;;;;;;5068083;28;20429;-69
2021/10/25 00:50:09;;;;;;;23.00;15.15;;;11.70;99.70;;;;;;5053362;28;20416;-70
2021/10/25 00:52:36;;;;;;;20.08;14.27;;;11.80;99.70;;;;;;5087383;28;20417;-71
2021/10/25 00:55:04;;;;;;;20.63;14.37;;;11.70;99.70;;;;;;5086484;28;20449;-71
2021/10/25 00:57:30;;;;;;;22.20;14.63;;;11.80;99.70;;;;;;5112226;27;20945;-70
2021/10/25 00:59:56;;;;;;;21.75;14.43;;;11.80;99.70;;;;;;5086698;28;20489;-71
2021/10/25 01:02:22;;;;;;;24.40;14.63;;;11.80;99.60;;;;;;5086954;28;20505;-71
2021/10/25 01:04:49;;;;;;;21.63;14.00;;;11.80;99.70;;;;;;5069604;28;20433;-70
2021/10/25 01:07:15;;;;;;;20.80;14.23;;;11.80;99.70;;;;;;5069083;28;20406;-71
2021/10/25 01:09:41;;;;;;;20.70;13.98;;;11.80;99.60;;;;;;5073723;28;20831;-73
2021/10/25 01:12:08;;;;;;;21.75;13.68;;;11.80;99.70;;;;;;5065549;28;20963;-72
2021/10/25 01:14:33;;;;;;;21.48;14.57;;;11.80;99.70;;;;;;5048299;28;20409;-70
2021/10/25 01:16:59;;;;;;;18.88;14.00;;;11.80;99.70;;;;;;5066233;28;20439;-70
2021/10/25 01:19:25;;;;;;;21.90;14.93;;;11.80;99.90;;;;;;5065892;28;20489;-70
2021/10/25 01:21:51;;;;;;;20.25;14.70;;;11.80;99.90;;;;;;5067771;28;20425;-70
2021/10/25 01:24:17;;;;;;;21.20;14.07;;;11.80;99.90;;;;;;5094824;28;20399;-70
2021/10/25 01:26:43;;;;;;;22.05;14.18;;;11.80;99.90;;;;;;5064358;28;20958;-71
2021/10/25 01:29:09;;;;;;;21.45;14.38;;;11.80;99.90;;;;;;5065310;28;20464;-70
2021/10/25 01:31:36;;;;;;;20.63;14.07;;;11.80;99.90;;;;;;5098611;28;20407;-71
2021/10/25 01:34:02;;;;;;;21.60;14.60;;;11.80;99.90;;;;;;5064650;28;20410;-71
2021/10/25 01:36:32;;;;;;;22.27;14.43;;;11.80;99.90;;;;;;5064333;28;20412;-71
2021/10/25 01:38:58;;;;;;;22.65;14.10;;;11.80;99.90;;;;;;5066765;28;20432;-72
2021/10/25 01:41:24;;;;;;;20.23;14.40;;;11.80;99.90;;;;;;5069152;28;20411;-71
2021/10/25 01:43:50;;;;;;;21.58;14.40;;;11.80;99.90;;;;;;5069386;28;20399;-72
2021/10/25 01:46:15;;;;;;;21.63;14.23;;;11.80;99.90;;;;;;5069837;28;20403;-72
2021/10/25 01:48:41;;;;;;;22.15;14.48;;;11.80;99.90;;;;;;5068315;28;20534;-71
2021/10/25 01:51:07;;;;;;;20.97;14.93;;;11.80;99.90;;;;;;5102158;27;20740;-71
2021/10/25 01:53:35;;;;;;;23.88;15.23;;;11.80;99.90;;;;;;5069383;28;20979;-72
2021/10/25 01:56:02;;;;;;;23.50;15.13;;;11.80;99.90;;;;;;5067351;28;20483;-70
2021/10/25 01:58:33;;;;;;;21.50;15.05;;;11.80;99.90;;;;;;5069087;28;20427;-70
2021/10/25 02:01:02;;;;;;;22.23;15.20;;;11.80;99.90;;;;;;5052009;28;20506;-71
2021/10/25 02:03:27;;;;;;;20.93;15.03;;;11.90;99.90;;;;;;5050773;28;20537;-71
2021/10/25 02:05:59;;;;;;;24.03;15.23;;;11.90;99.90;;;;;;5068461;28;20749;-71
2021/10/25 02:08:25;;;;;;;21.40;15.27;;;11.90;99.90;;;;;;5051104;28;20406;-71
2021/10/25 02:10:59;;;;;;;23.10;15.50;;;11.90;99.90;;;;;;5068081;28;20410;-70
2021/10/25 02:13:27;;;;;;;22.52;15.32;;;11.90;99.90;;;;;;5052135;28;20468;-72
2021/10/25 02:15:54;;;;;;;22.90;15.52;;;11.90;99.90;;;;;;5063043;28;21228;-72
2021/10/25 02:18:22;;;;;;;25.92;15.88;;;11.90;99.90;;;;;;5067016;28;20541;-71
2021/10/25 02:20:49;;;;;;;22.17;14.52;;;11.90;99.90;;;;;;5062401;28;20401;-71
2021/10/25 02:23:20;;;;;;;23.23;15.98;;;11.90;99.90;;;;;;5064101;28;20408;-71
2021/10/25 02:25:48;;;;;;;24.63;16.05;;;11.90;99.90;;;;;;5062348;28;20415;-73
2021/10/25 02:28:16;;;;;;;22.25;14.88;;;12.00;99.90;;;;;;5068440;28;20410;-72
2021/10/25 02:30:44;;;;;;;26.02;15.75;;;12.00;99.90;;;;;;5062291;28;20430;-73
2021/10/25 02:33:10;;;;;;;21.90;14.50;;;12.00;99.90;;;;;;5066580;28;20396;-71
2021/10/25 02:35:35;;;;;;;22.30;15.63;;;12.00;99.90;;;;;;5048077;28;20444;-72
2021/10/25 02:38:02;;;;;;;22.35;15.82;;;12.00;99.90;;;;;;5066631;28;20431;-72
2021/10/25 02:40:31;;;;;;;22.95;15.52;;;12.00;99.90;;;;;;5061405;28;20498;-73
2021/10/25 02:42:59;;;;;;;21.83;15.63;;;12.00;99.90;;;;;;5064669;28;20396;-71
2021/10/25 02:45:25;;;;;;;23.55;15.23;;;12.10;99.90;;;;;;5064453;28;20783;-72
2021/10/25 02:47:51;;;;;;;21.90;15.20;;;12.10;99.90;;;;;;5067142;28;20452;-72
2021/10/25 02:50:17;;;;;;;22.00;15.60;;;12.10;99.90;;;;;;5065391;28;20979;-72
2021/10/25 02:52:43;;;;;;;22.20;15.23;;;12.10;99.90;;;;;;5050293;28;20412;-72
2021/10/25 02:55:09;;;;;;;22.77;16.08;;;12.10;99.90;;;;;;5043975;28;20774;-71
2021/10/25 02:57:37;;;;;;;24.30;15.60;;;12.10;99.90;;;;;;5068094;28;20404;-72
2021/10/25 03:00:06;;;;;;;24.40;16.17;;;12.10;99.90;;;;;;5062328;28;20749;-72
2021/10/25 03:02:35;;;;;;;24.02;16.38;;;12.10;99.90;;;;;;5050694;28;20412;-72
2021/10/25 03:05:02;;;;;;;26.17;17.15;;;12.10;99.90;;;;;;5047258;28;20949;-71
2021/10/25 03:07:28;;;;;;;24.92;17.00;;;12.10;99.90;;;;;;5066716;28;20411;-71
2021/10/25 03:09:56;;;;;;;25.93;16.93;;;12.10;99.90;;;;;;5064196;28;20427;-70
2021/10/25 03:12:22;;;;;;;24.17;17.40;;;12.00;99.90;;;;;;5049643;28;20435;-72
2021/10/25 03:14:51;;;;;;;24.77;18.15;;;12.00;99.90;;;;;;5060136;28;20546;-71
2021/10/25 03:17:17;;;;;;;26.15;18.05;;;12.00;99.90;;;;;;5064785;28;20924;-71
2021/10/25 03:20:05;;;;;;;27.77;18.85;;;12.00;99.90;;;;;;5063648;28;20415;-73
2021/10/25 03:22:31;;;;;;;29.33;18.92;;;11.90;99.90;;;;;;5064289;28;20406;-72
2021/10/25 03:24:59;;;;;;;27.65;19.15;;;11.90;99.90;;;;;;5065131;28;20411;-72
2021/10/25 03:27:27;;;;;;;27.98;19.50;;;11.90;99.90;;;;;;5064517;28;20587;-72
2021/10/25 03:29:53;;;;;;;28.02;19.63;;;11.80;99.90;;;;;;5061023;28;20519;-72
2021/10/25 03:32:19;;;;;;;26.45;18.95;;;11.80;99.90;;;;;;5061177;28;20776;-72
2021/10/25 03:34:48;;;;;;;27.25;18.20;;;11.90;99.90;;;;;;5062150;28;20453;-71
2021/10/25 03:37:16;;;;;;;26.15;18.98;;;11.90;99.90;;;;;;5049490;28;20422;-72
2021/10/25 03:39:45;;;;;;;29.20;20.13;;;11.80;99.90;;;;;;5061417;28;20411;-72
2021/10/25 03:42:28;;;;;;;26.80;19.60;;;11.80;99.90;;;;;;5062109;28;20399;-73
2021/10/25 03:45:49;;;;;;;31.90;19.90;;;11.80;99.90;;;;;;5058481;28;21222;-72
2021/10/25 03:50:17;;;;;;;29.87;20.30;;;11.80;99.90;;;;;;5063325;28;20416;-72
2021/10/25 03:55:37;;;;;;;32.28;20.30;;;11.80;99.90;;;;;;5058817;28;20415;-72
2021/10/25 04:28:20;;;;;;;35.05;24.02;;;11.70;99.90;;;;;;5073293;28;20918;-71
2021/10/25 04:30:52;;;;;;;34.25;23.63;;;11.70;99.90;;;;;;5106892;27;20435;-70
2021/10/25 04:33:20;;;;;;;37.10;25.60;;;11.70;99.90;;;;;;5066438;28;20446;-71
2021/10/25 04:35:54;;;;;;;34.92;24.35;;;11.70;99.90;;;;;;5101176;28;20425;-69
2021/10/25 04:38:40;;;;;;;34.13;24.70;;;11.70;99.90;;;;;;5073622;28;20418;-71
2021/10/25 04:41:05;;;;;;;34.53;25.08;;;11.70;99.90;;;;;;5074239;28;20516;-71
2021/10/25 04:43:31;;;;;;;38.63;25.63;;;11.80;99.90;;;;;;5059969;28;20480;-72
2021/10/25 04:45:57;;;;;;;34.13;24.95;;;11.80;99.90;;;;;;5085010;28;20443;-72
2021/10/25 04:48:23;;;;;;;39.28;26.30;;;11.80;99.90;;;;;;5069293;28;20400;-74
2021/10/25 04:51:15;;;;;;;41.33;26.80;;;11.80;99.90;;;;;;5081653;28;20437;-74
2021/10/25 04:54:02;;;;;;;38.58;28.45;;;11.80;99.90;;;;;;5075052;28;20409;-73
2021/10/25 04:56:31;;;;;;;39.10;27.90;;;11.80;99.90;;;;;;5068534;28;20769;-74
2021/10/25 04:58:57;;;;;;;40.15;28.77;;;11.80;99.90;;;;;;5085838;28;20996;-73
2021/10/25 05:01:22;;;;;;;42.10;29.23;;;11.80;99.90;;;;;;5088690;28;20413;-73
2021/10/25 05:03:49;;;;;;;39.78;28.63;;;11.90;99.90;;;;;;5050412;28;20417;-73
2021/10/25 05:06:19;;;;;;;42.33;29.42;;;11.90;99.90;;;;;;5081176;28;20417;-72
2021/10/25 05:08:48;;;;;;;40.97;28.88;;;11.90;99.90;;;;;;5068685;28;20994;-71
2021/10/25 05:11:15;;;;;;;41.25;30.40;;;11.90;99.90;;;;;;5068339;28;20402;-70
2021/10/25 05:13:42;;;;;;;41.85;30.42;;;11.90;99.90;;;;;;5067857;28;20503;-73
2021/10/25 05:16:08;;;;;;;41.65;29.98;;;11.90;99.90;;;;;;5071318;28;20768;-73
2021/10/25 05:18:36;;;;;;;45.78;31.40;;;12.00;99.90;;;;;;5073467;28;20430;-73
2021/10/25 05:21:02;;;;;;;47.13;31.93;;;12.00;99.90;;;;;;5069520;28;20495;-73
2021/10/25 05:23:28;;;;;;;46.65;32.47;;;11.90;99.90;;;;;;5068603;28;20413;-73
2021/10/25 05:25:54;;;;;;;42.47;31.52;;;12.00;99.90;;;;;;5066963;28;20414;-74
2021/10/25 05:28:20;;;;;;;48.78;33.42;;;12.00;99.90;;;;;;5065705;28;20447;-73
2021/10/25 05:30:46;;;;;;;49.70;33.80;;;12.00;99.90;;;;;;5057739;28;20409;-73
2021/10/25 05:33:20;;;;;;;47.92;34.03;;;12.00;99.90;;;;;;5053384;28;20406;-72
2021/10/25 05:35:46;;;;;;;49.90;34.63;;;12.00;99.90;;;;;;5068060;28;20413;-72
2021/10/25 05:38:13;;;;;;;51.85;35.38;;;12.10;99.90;;;;;;5102086;28;20433;-69
2021/10/25 05:40:39;;;;;;;50.22;35.20;;;12.10;99.90;;;;;;5067589;28;20746;-72
2021/10/25 05:43:07;;;;;;;53.75;35.97;;;12.10;99.90;;;;;;5101155;28;20406;-71
2021/10/25 05:45:33;;;;;;;58.10;37.00;;;12.10;99.90;;;;;;5066159;28;20470;-70
2021/10/25 05:47:59;;;;;;;56.47;36.77;;;12.20;99.90;;;;;;5067001;28;20413;-73
2021/10/25 05:50:24;;;;;;;57.03;36.78;;;12.20;99.90;;;;;;5066609;28;20516;-71
2021/10/25 05:52:51;;;;;;;59.75;39.00;;;12.20;99.90;;;;;;5068264;28;20394;-71
2021/10/25 05:55:24;;;;;;;57.53;37.35;;;12.20;99.90;;;;;;5065332;28;20421;-74
2021/10/25 05:57:52;;;;;;;58.58;37.72;;;12.20;99.90;;;;;;5064486;28;20459;-72
2021/10/25 06:00:25;;;;;;;60.97;38.80;;;12.20;99.90;;;;;;5065537;28;20432;-71
2021/10/25 06:02:53;;;;;;;58.88;37.95;;;12.20;99.90;;;;;;5082323;28;20404;-70
2021/10/25 06:05:22;;;;;;;60.60;38.78;;;12.20;99.90;;;;;;5067857;28;20397;-73
2021/10/25 06:07:51;;;;;;;60.88;38.65;;;12.30;99.90;;;;;;5069748;28;20421;-74
2021/10/25 06:10:25;;;;;;;63.75;39.92;;;12.20;99.90;;;;;;5066027;28;20410;-75
2021/10/25 06:12:51;;;;;;;64.72;39.70;;;12.30;99.90;;;;;;5084392;28;21304;-72
2021/10/25 06:15:24;;;;;;;61.43;39.07;;;12.30;99.90;;;;;;5102840;28;20406;-73
2021/10/25 06:20:21;;;;;;;62.75;40.17;;;12.30;99.90;;;;;;5063383;28;20410;-73
2021/10/25 06:22:47;;;;;;;59.83;39.38;;;12.30;99.90;;;;;;5074319;28;20454;-73
2021/10/25 06:25:14;;;;;;;62.10;40.43;;;12.40;99.90;;;;;;5071127;28;20401;-72
2021/10/25 06:27:47;;;;;;;65.67;41.03;;;12.40;99.90;;;;;;5083486;28;20412;-71
2021/10/25 06:30:14;;;;;;;66.03;41.57;;;12.40;99.90;;;;;;5087016;28;20447;-72
2021/10/25 06:32:40;;;;;;;65.80;40.55;;;12.40;99.90;;;;;;5070823;28;20509;-71
2021/10/25 06:35:26;;;;;;;66.80;42.13;;;12.40;99.90;;;;;;5086816;28;20416;-72
2021/10/25 06:38:15;;;;;;;62.25;41.70;;;12.40;99.90;;;;;;5059187;28;20418;-72
2021/10/25 06:40:40;;;;;;;67.43;41.67;;;12.50;99.90;;;;;;5070016;28;20726;-71
2021/10/25 06:43:10;;;;;;;63.30;41.13;;;12.50;99.90;;;;;;5075551;28;20983;-72
2021/10/25 06:45:36;;;;;;;62.50;41.25;;;12.50;99.90;;;;;;5070756;28;20409;-72
2021/10/25 06:48:02;;;;;;;61.37;41.73;;;12.50;99.90;;;;;;5107886;27;21087;-73
2021/10/25 06:50:29;;;;;;;62.67;41.67;;;12.50;99.90;;;;;;5071843;28;20402;-72
2021/10/25 06:53:05;;;;;;;60.22;40.38;;;12.50;99.90;;;;;;5059883;28;20392;-72
2021/10/25 06:55:40;;;;;;;61.42;41.03;;;12.50;99.90;;;;;;5071986;28;20517;-72
2021/10/25 06:58:08;;;;;;;58.80;40.30;;;12.50;99.90;;;;;;5054001;28;20778;-72
2021/10/25 07:00:35;;;;;;;57.55;38.90;;;12.50;99.90;;;;;;5069051;28;20414;-72
2021/10/25 07:03:02;;;;;;;55.88;37.55;;;12.50;99.90;;;;;;5087712;28;20479;-71
2021/10/25 07:05:35;;;;;;;60.22;39.90;;;12.50;99.90;;;;;;5066233;28;20424;-71
2021/10/25 07:08:07;;;;;;;55.45;38.30;;;12.50;99.90;;;;;;5067615;28;20400;-71
2021/10/25 07:10:35;;;;;;;54.00;36.65;;;12.50;99.90;;;;;;5071179;28;20412;-72
2021/10/25 07:13:02;;;;;;;56.63;38.28;;;12.50;99.90;;;;;;5069276;28;20922;-71
2021/10/25 07:15:30;;;;;;;53.20;36.97;;;12.50;99.90;;;;;;5070280;28;20416;-71
2021/10/25 07:20:56;;;;;;;52.00;37.07;;;12.50;99.90;;;;;;5069045;28;20475;-72
2021/10/25 08:02:46;;;;;;;38.35;29.10;;;12.70;99.90;;;;;;5092094;28;20386;-73
2021/10/25 08:05:34;;;;;;;41.17;30.02;;;12.70;99.90;;;;;;5069596;28;20575;-73
2021/10/25 08:11:05;;;;;;;39.20;29.30;;;12.70;99.90;;;;;;5066838;28;20928;-71
2021/10/25 08:13:46;;;;;;;38.55;30.25;;;12.80;99.90;;;;;;5063050;28;20907;-74
2021/10/25 08:16:31;;;;;;;38.97;29.70;;;12.80;99.90;;;;;;5067779;28;20404;-73
2021/10/25 08:21:34;;;;;;;34.67;27.95;;;12.80;99.90;;;;;;5104800;27;20434;-74
2021/10/25 08:24:01;;;;;;;38.60;29.15;;;12.80;99.90;;;;;;5066935;28;20406;-74
2021/10/25 08:26:45;;;;;;;37.78;29.52;;;12.80;99.90;;;;;;5087626;28;20884;-73
2021/10/25 08:29:14;;;;;;;37.30;29.20;;;12.80;99.90;;;;;;5075029;28;20911;-74
2021/10/25 08:31:43;;;;;;;38.80;29.63;;;12.80;99.90;;;;;;5102191;28;20478;-74
2021/10/25 08:39:51;;;;;;;44.90;31.90;;;12.80;99.90;;;;;;5071547;28;20410;-74
2021/10/25 08:42:25;;;;;;;46.10;32.90;;;12.90;99.90;;;;;;5069669;28;20479;-73
2021/10/25 08:44:56;;;;;;;47.03;32.35;;;12.90;99.90;;;;;;5066400;28;20402;-73
2021/10/25 08:47:25;;;;;;;46.85;32.38;;;13.00;99.90;;;;;;5106215;27;20405;-73
2021/10/25 08:49:52;;;;;;;50.35;33.58;;;13.00;99.90;;;;;;5066594;28;20425;-73
2021/10/25 08:52:20;;;;;;;54.47;34.78;;;13.00;99.90;;;;;;5068846;28;20409;-73
2021/10/25 08:54:51;;;;;;;51.95;36.17;;;13.00;99.90;;;;;;5074076;28;20411;-74
2021/10/25 08:57:19;;;;;;;53.63;35.80;;;13.10;99.90;;;;;;5087070;28;20500;-74
2021/10/25 08:59:59;;;;;;;54.72;35.88;;;13.10;99.90;;;;;;5068275;28;20404;-74
2021/10/25 09:02:27;;;;;;;58.95;37.80;;;13.10;99.90;;;;;;5071418;28;20911;-74
2021/10/25 09:05:08;;;;;;;48.55;33.88;;;13.10;99.90;;;;;;5072005;28;20442;-74
2021/10/25 09:07:58;;;;;;;55.60;36.78;;;13.10;99.90;;;;;;5069044;28;20882;-73
2021/10/25 09:10:41;;;;;;;57.92;38.20;;;13.20;99.90;;;;;;5068621;28;20443;-73
2021/10/25 09:13:27;;;;;;;57.25;37.83;;;13.20;99.90;;;;;;5086108;28;20499;-73
2021/10/25 09:15:56;;;;;;;54.83;37.17;;;13.30;99.90;;;;;;5065155;28;20410;-73
2021/10/25 09:18:42;;;;;;;57.47;37.90;;;13.30;99.90;;;;;;5084266;28;20409;-76
2021/10/25 09:21:13;;;;;;;56.60;37.35;;;13.40;99.90;;;;;;5097274;28;20417;-72
2021/10/25 09:23:49;;;;;;;57.00;37.90;;;13.40;99.90;;;;;;5084000;28;20439;-75
2021/10/25 09:26:23;;;;;;;55.37;37.57;;;13.40;99.90;;;;;;5064714;28;21004;-68
2021/10/25 09:28:54;;;;;;;55.38;37.90;;;13.50;99.90;;;;;;5087260;28;20413;-72
2021/10/25 09:31:31;;;;;;;55.30;37.43;;;13.50;99.90;;;;;;5097582;28;20393;-74
2021/10/25 09:34:06;;;;;;;54.40;37.20;;;13.50;99.90;;;;;;5067713;28;20390;-71
2021/10/25 09:36:53;;;;;;;50.40;37.05;;;13.50;99.90;;;;;;5085876;28;20425;-70
2021/10/25 09:50:50;;;;;;;51.30;35.25;;;13.70;99.90;;;;;;5029076;28;20422;-72
2021/10/25 09:53:37;;;;;;;51.97;35.85;;;13.80;99.90;;;;;;5078196;28;20419;-72
2021/10/25 09:56:09;;;;;;;52.15;34.95;;;13.80;99.90;;;;;;5099531;28;20902;-72
2021/10/25 09:59:08;;;;;;;50.10;34.72;;;13.80;99.90;;;;;;5066800;28;20410;-72
2021/10/25 10:01:36;;;;;;;51.97;34.83;;;13.80;99.90;;;;;;5067124;28;20406;-72
2021/10/25 10:04:06;;;;;;;50.97;34.17;;;13.80;99.90;;;;;;5087259;28;20525;-73
2021/10/25 10:06:50;;;;;;;50.90;33.95;;;13.80;99.90;;;;;;5090334;28;20450;-72
2021/10/25 10:09:16;;;;;;;50.47;34.00;;;13.80;99.90;;;;;;5071836;28;20397;-72
2021/10/25 10:11:43;;;;;;;49.35;34.05;;;13.90;99.90;;;;;;5072668;28;20415;-74
2021/10/25 10:14:09;;;;;;;53.10;34.28;;;13.90;99.90;;;;;;5070723;28;20944;-73
2021/10/25 10:16:43;;;;;;;50.95;33.63;;;13.80;99.90;;;;;;5071131;28;20878;-72
2021/10/25 10:19:12;;;;;;;51.03;33.90;;;13.90;99.90;;;;;;5090426;28;20396;-74
2021/10/25 10:22:11;;;;;;;51.67;34.60;;;13.90;99.90;;;;;;5049861;28;20447;-71
2021/10/25 10:24:55;;;;;;;56.88;36.38;;;13.90;99.90;;;;;;5070814;28;20521;-71
2021/10/25 10:27:23;;;;;;;53.08;34.50;;;13.90;99.90;;;;;;5090984;28;20402;-72
2021/10/25 10:29:54;;;;;;;61.30;36.75;;;13.90;99.90;;;;;;5071052;28;20963;-72
2021/10/25 10:32:39;;;;;;;61.58;37.10;;;13.90;99.90;;;;;;5065400;28;20416;-71
2021/10/25 10:35:16;;;;;;;60.05;35.90;;;13.90;99.90;;;;;;5092690;28;20530;-70
2021/10/25 10:38:14;;;;;;;56.45;35.88;;;13.90;99.90;;;;;;5032874;28;20408;-70
2021/10/25 10:41:15;;;;;;;59.15;37.10;;;13.90;99.90;;;;;;5090917;28;20513;-71
2021/10/25 10:44:07;;;;;;;65.20;37.17;;;13.90;99.90;;;;;;5071326;28;20412;-73
2021/10/25 10:46:56;;;;;;;62.63;37.05;;;14.00;99.90;;;;;;5071985;28;20878;-72
2021/10/25 10:49:31;;;;;;;62.05;37.60;;;14.00;99.90;;;;;;5093458;28;20912;-72
2021/10/25 10:52:34;;;;;;;74.43;46.00;;;14.00;99.90;;;;;;5082161;28;20502;-73
2021/10/25 10:55:17;;;;;;;60.95;36.90;;;14.10;99.90;;;;;;5076207;28;20923;-72
2021/10/25 11:00:28;;;;;;;63.72;37.45;;;14.10;99.90;;;;;;5089391;28;20478;-71
2021/10/25 11:02:58;;;;;;;65.32;38.53;;;14.20;99.90;;;;;;5089254;28;20450;-72
2021/10/25 11:05:38;;;;;;;64.38;38.45;;;14.20;99.90;;;;;;5074284;28;20487;-72
2021/10/25 11:08:05;;;;;;;63.55;37.80;;;14.20;99.90;;;;;;5099752;28;20400;-72
2021/10/25 11:10:32;;;;;;;62.83;37.92;;;14.20;99.90;;;;;;5072350;28;20413;-72
2021/10/25 11:13:21;;;;;;;62.40;37.58;;;14.20;99.90;;;;;;5069531;28;20420;-72
2021/10/25 11:16:03;;;;;;;64.60;37.88;;;14.20;99.90;;;;;;5087082;28;20479;-72
2021/10/25 11:18:34;;;;;;;69.97;38.75;;;14.20;99.90;;;;;;5070574;28;20551;-71
2021/10/25 11:21:12;;;;;;;68.10;38.33;;;14.20;99.90;;;;;;5071034;28;20494;-72
2021/10/25 11:24:05;;;;;;;69.47;40.30;;;14.20;99.90;;;;;;5087845;28;20927;-72
2021/10/25 11:26:46;;;;;;;66.50;38.90;;;14.20;99.90;;;;;;5059763;28;20482;-72
2021/10/25 11:29:26;;;;;;;72.00;39.55;;;14.20;99.90;;;;;;5088820;28;20424;-72
2021/10/25 11:32:06;;;;;;;68.65;38.75;;;14.20;99.90;;;;;;5069553;28;20410;-71
2021/10/25 11:34:36;;;;;;;64.82;37.70;;;14.20;99.90;;;;;;5086653;28;20793;-72
2021/10/25 11:37:11;;;;;;;63.77;38.20;;;14.30;99.90;;;;;;5088586;28;20422;-73
2021/10/25 11:42:19;;;;;;;65.80;37.20;;;14.40;99.90;;;;;;5094950;28;20438;-73
2021/10/25 11:44:56;;;;;;;63.80;37.80;;;14.40;99.90;;;;;;5086288;28;20426;-73
2021/10/25 11:47:26;;;;;;;62.95;37.83;;;14.40;99.90;;;;;;5092581;28;20830;-73
2021/10/25 11:50:00;;;;;;;60.10;35.97;;;14.50;99.90;;;;;;5086185;28;20919;-73
2021/10/25 11:52:33;;;;;;;62.50;36.70;;;14.50;99.90;;;;;;5088351;28;20492;-71
2021/10/25 11:54:58;;;;;;;62.80;35.47;;;14.50;99.90;;;;;;5086133;28;20424;-71
2021/10/25 11:57:24;;;;;;;60.00;35.40;;;14.50;99.90;;;;;;5085568;28;20417;-73
2021/10/25 12:00:02;;;;;;;63.20;36.25;;;14.50;99.90;;;;;;5100654;27;20411;-75
2021/10/25 12:02:39;;;;;;;67.05;37.22;;;14.50;99.90;;;;;;5096649;28;20753;-72
2021/10/25 12:05:05;;;;;;;66.68;38.05;;;14.50;99.90;;;;;;5071020;28;20417;-74
2021/10/25 12:07:32;;;;;;;65.55;37.53;;;14.50;99.90;;;;;;5100881;27;20413;-72
2021/10/25 12:10:04;;;;;;;63.25;37.22;;;14.50;99.90;;;;;;5084634;28;20501;-72
2021/10/25 12:12:30;;;;;;;65.03;37.25;;;14.50;99.90;;;;;;5086058;28;20426;-72
2021/10/25 12:14:59;;;;;;;62.10;37.10;;;14.60;99.90;;;;;;5083641;28;20405;-73
2021/10/25 12:17:32;;;;;;;59.25;36.15;;;14.70;99.90;;;;;;5088242;28;20898;-71
2021/10/25 12:20:05;;;;;;;56.47;34.90;;;14.80;99.90;;;;;;5089142;28;20784;-71
2021/10/25 12:22:32;;;;;;;55.97;34.90;;;14.80;99.90;;;;;;5069551;28;20444;-73
2021/10/25 12:24:58;;;;;;;57.40;33.60;;;14.90;99.90;;;;;;5097537;28;20401;-73
2021/10/25 12:27:32;;;;;;;59.47;34.70;;;14.90;99.90;;;;;;5086690;28;20413;-72
2021/10/25 12:30:13;;;;;;;49.13;31.92;;;14.90;99.90;;;;;;5086989;28;20429;-73
2021/10/25 12:32:54;;;;;;;51.33;31.83;;;15.00;99.90;;;;;;5087570;28;20398;-72
2021/10/25 12:35:44;;;;;;;49.80;31.25;;;15.00;99.90;;;;;;5087024;28;20512;-72
2021/10/25 12:38:14;;;;;;;50.33;30.95;;;15.10;99.90;;;;;;5088621;28;20415;-72
2021/10/25 12:40:46;;;;;;;48.28;31.17;;;15.10;99.90;;;;;;5094139;28;20388;-72
2021/10/25 12:43:13;;;;;;;47.38;31.13;;;15.20;99.90;;;;;;5086085;28;20409;-72
2021/10/25 12:45:44;;;;;;;47.08;30.20;;;15.20;99.90;;;;;;5086741;28;20394;-72
2021/10/25 12:48:14;;;;;;;46.63;29.27;;;15.20;99.90;;;;;;5087048;28;20390;-72
2021/10/25 12:50:50;;;;;;;45.42;29.58;;;15.20;99.90;;;;;;5066948;28;20398;-71
2021/10/25 12:53:16;;;;;;;46.33;30.17;;;15.20;99.90;;;;;;5087017;28;20401;-71
2021/10/25 12:55:56;;;;;;;48.72;29.73;;;15.20;99.90;;;;;;5086428;28;20416;-73
2021/10/25 12:58:24;;;;;;;45.88;29.40;;;15.20;99.90;;;;;;5086472;28;20418;-73
2021/10/25 13:00:50;;;;;;;48.60;30.30;;;15.20;99.90;;;;;;5086663;28;20398;-73
2021/10/25 13:03:17;;;;;;;51.53;30.17;;;15.20;99.90;;;;;;5079025;28;20748;-72
2021/10/25 13:05:49;;;;;;;49.77;30.60;;;15.20;99.90;;;;;;5086734;28;20887;-72
2021/10/25 13:08:15;;;;;;;52.45;30.40;;;15.10;99.90;;;;;;5068612;28;21000;-72
2021/10/25 13:10:43;;;;;;;49.05;29.77;;;15.10;99.90;;;;;;5067415;28;20471;-72
2021/10/25 13:13:13;;;;;;;47.22;30.20;;;15.10;99.90;;;;;;5086638;28;20401;-73
2021/10/25 13:15:41;;;;;;;46.40;31.08;;;15.20;99.90;;;;;;5068363;28;20478;-71
2021/10/25 13:18:09;;;;;;;50.92;32.03;;;15.20;99.90;;;;;;5086818;28;20421;-72
2021/10/25 13:20:37;;;;;;;49.75;32.25;;;15.20;99.90;;;;;;5086817;28;20417;-73
2021/10/25 13:23:04;;;;;;;54.58;32.45;;;15.20;99.90;;;;;;5086781;28;20428;-72
2021/10/25 13:25:32;;;;;;;50.90;32.22;;;15.10;99.90;;;;;;5085487;28;20413;-71
2021/10/25 13:27:59;;;;;;;50.47;34.17;;;15.10;99.90;;;;;;5087175;28;20409;-70
2021/10/25 13:30:26;;;;;;;59.35;34.55;;;15.10;99.90;;;;;;5086266;28;20414;-73
2021/10/25 13:32:52;;;;;;;55.35;33.78;;;15.10;99.90;;;;;;5086641;28;20397;-74
2021/10/25 13:35:19;;;;;;;58.35;36.53;;;15.10;99.90;;;;;;5087644;28;20914;-73
2021/10/25 13:37:51;;;;;;;54.80;35.10;;;15.10;99.90;;;;;;5092544;28;21060;-74
2021/10/25 13:40:17;;;;;;;60.63;36.40;;;15.10;99.90;;;;;;5101512;28;20401;-72
2021/10/25 13:42:43;;;;;;;59.70;36.83;;;15.10;99.90;;;;;;5090473;28;20393;-73
2021/10/25 13:45:09;;;;;;;59.83;36.38;;;15.10;99.90;;;;;;5093861;28;20400;-72
2021/10/25 13:47:35;;;;;;;60.13;35.63;;;15.10;99.90;;;;;;5090196;28;20405;-74
2021/10/25 13:50:01;;;;;;;57.85;35.97;;;15.10;99.90;;;;;;5089721;28;20622;-73
2021/10/25 13:52:26;;;;;;;60.90;36.22;;;15.10;99.90;;;;;;5091188;28;20423;-72
2021/10/25 13:54:54;;;;;;;59.33;36.17;;;15.10;99.90;;;;;;5089966;28;20531;-73
2021/10/25 13:57:22;;;;;;;61.75;37.13;;;15.10;99.90;;;;;;5106057;27;20467;-72
2021/10/25 13:59:48;;;;;;;64.43;39.72;;;15.10;99.90;;;;;;5071771;28;20395;-74
2021/10/25 14:02:15;;;;;;;63.50;40.35;;;15.00;99.90;;;;;;5075756;28;20388;-72
2021/10/25 14:04:50;;;;;;;60.42;38.85;;;15.00;99.90;;;;;;5097195;28;20410;-73
2021/10/25 14:07:21;;;;;;;64.28;40.35;;;15.00;99.90;;;;;;5089498;28;20416;-73
2021/10/25 14:09:53;;;;;;;64.13;40.03;;;14.90;99.90;;;;;;5075473;28;21057;-72
2021/10/25 14:12:23;;;;;;;65.20;40.20;;;14.90;99.90;;;;;;5074052;28;20421;-73
2021/10/25 14:14:51;;;;;;;64.45;39.75;;;14.90;99.90;;;;;;5089866;28;20920;-73
2021/10/25 14:17:18;;;;;;;60.47;39.38;;;14.90;99.90;;;;;;5089592;28;20409;-72
2021/10/25 14:19:44;;;;;;;62.53;39.85;;;14.90;99.90;;;;;;5089795;28;20402;-73
2021/10/25 14:22:09;;;;;;;63.40;40.63;;;15.00;99.90;;;;;;5089683;28;20481;-72
2021/10/25 14:24:35;;;;;;;62.53;39.70;;;15.00;99.90;;;;;;5071663;28;20481;-72
2021/10/25 14:27:01;;;;;;;64.47;40.70;;;15.00;99.90;;;;;;5086554;28;20482;-71
2021/10/25 14:29:26;;;;;;;64.30;41.17;;;15.00;99.90;;;;;;5088913;28;20393;-72
2021/10/25 14:31:52;;;;;;;61.77;41.93;;;15.00;99.90;;;;;;5107162;27;20429;-73
2021/10/25 14:34:19;;;;;;;65.80;41.30;;;15.00;99.90;;;;;;5088931;28;20420;-73